Terminal Aerodrome Forecast
Issued by NWS Upton, NY

Current Version | Previous Version | Text Only | Print | Product List | Glossary On
Versions: 1 2 3 4 5 6 7 8 9 10 11 12 13 14 15 16 17 18 19 20 21 22 23 24 25
000
FTUS41 KOKX 041120
TAFEWR
TAF
KEWR 041120Z 0412/0518 02009KT P6SM SCT250
     FM041300 05011KT P6SM BKN100
     FM041700 07011G17KT P6SM BKN050
     FM042100 08010G16KT P6SM BKN100
     FM050200 06009KT P6SM BKN250
     FM050600 03009KT P6SM SCT250
     FM051300 06007KT P6SM SCT250=

USA.gov is the U.S. government's official web portal to all federal, state and local government web resources and services.